createdAt,value
2018-06-30T00:01:30.112Z,75.50
2018-06-30T00:06:32.731Z,75.70
2018-06-30T00:11:35.243Z,75.70
2018-06-30T00:16:37.800Z,75.80
2018-06-30T00:21:40.336Z,75.90
2018-06-30T00:26:42.901Z,76.00
2018-06-30T00:31:45.495Z,76.20
2018-06-30T00:36:48.016Z,76.30
2018-06-30T00:41:50.591Z,76.60
2018-06-30T00:46:53.196Z,76.60
2018-06-30T00:51:55.798Z,76.80
2018-06-30T00:56:58.397Z,77.50
2018-06-30T01:02:00.999Z,76.90
2018-06-30T01:07:03.596Z,76.80
2018-06-30T01:12:06.201Z,76.80
2018-06-30T01:17:08.720Z,76.90
2018-06-30T01:22:11.291Z,76.90
2018-06-30T01:27:13.891Z,76.60
2018-06-30T01:32:16.799Z,76.60
2018-06-30T01:37:19.320Z,76.80
2018-06-30T01:42:21.844Z,76.70
2018-06-30T01:47:24.391Z,76.50
2018-06-30T01:52:26.911Z,76.40
2018-06-30T01:57:29.428Z,76.40
2018-06-30T02:02:31.954Z,76.20
2018-06-30T02:07:34.460Z,76.10
2018-06-30T02:12:36.976Z,76.20
2018-06-30T02:17:39.592Z,76.40
2018-06-30T02:22:42.183Z,76.40
2018-06-30T02:27:44.795Z,76.60
2018-06-30T02:32:48.104Z,76.40
2018-06-30T02:37:50.703Z,76.50
2018-06-30T02:42:53.214Z,76.60
2018-06-30T02:47:55.799Z,76.50
2018-06-30T02:52:59.016Z,76.30
2018-06-30T02:58:01.537Z,76.30
2018-06-30T03:03:04.117Z,76.10
2018-06-30T03:08:06.777Z,76.20
2018-06-30T03:13:09.316Z,75.90
2018-06-30T03:18:11.923Z,76.00
2018-06-30T03:23:14.530Z,76.00
2018-06-30T03:28:17.131Z,75.90
2018-06-30T03:33:19.672Z,76.00
2018-06-30T03:38:22.273Z,76.10
2018-06-30T03:43:24.783Z,76.00
2018-06-30T03:48:27.407Z,76.00
2018-06-30T03:53:29.924Z,76.10
2018-06-30T03:58:32.443Z,76.20
2018-06-30T04:03:34.968Z,76.40
2018-06-30T04:08:38.061Z,76.60
2018-06-30T04:13:41.323Z,76.30
2018-06-30T04:18:47.023Z,76.70
2018-06-30T04:23:50.422Z,76.70
2018-06-30T04:28:54.193Z,76.30
2018-06-30T04:33:57.148Z,76.60
2018-06-30T04:38:59.853Z,77.10
2018-06-30T04:44:02.758Z,76.20
2018-06-30T04:49:08.147Z,76.20
2018-06-30T04:54:10.681Z,76.10
2018-06-30T04:59:13.837Z,76.00
2018-06-30T05:04:17.547Z,76.90
2018-06-30T05:09:20.728Z,76.10
2018-06-30T05:14:27.433Z,75.70
2018-06-30T05:19:32.673Z,75.90
2018-06-30T05:24:36.914Z,75.80
2018-06-30T05:29:39.609Z,76.10
2018-06-30T05:34:42.606Z,76.40
2018-06-30T05:39:45.547Z,76.30
2018-06-30T05:44:48.095Z,76.50
2018-06-30T05:49:51.395Z,75.70
2018-06-30T05:54:54.360Z,75.70
2018-06-30T05:59:57.016Z,75.90
2018-06-30T06:04:59.924Z,75.50
2018-06-30T06:10:03.788Z,75.50
2018-06-30T06:15:07.025Z,74.60
2018-06-30T06:20:09.561Z,74.50
2018-06-30T06:25:12.039Z,74.80
2018-06-30T06:30:14.684Z,74.30
2018-06-30T06:35:17.199Z,73.20
2018-06-30T06:40:19.759Z,72.30
2018-06-30T06:45:22.609Z,71.70
2018-06-30T06:50:25.166Z,70.80
2018-06-30T06:55:27.675Z,70.40
2018-06-30T07:00:30.222Z,70.20
2018-06-30T07:05:32.723Z,69.10
2018-06-30T07:10:35.264Z,68.80
2018-06-30T07:15:37.808Z,67.80
2018-06-30T07:20:40.755Z,67.50
2018-06-30T07:25:43.367Z,66.20
2018-06-30T07:30:45.984Z,65.50
2018-06-30T07:35:48.585Z,64.10
2018-06-30T07:40:51.071Z,62.10
2018-06-30T07:45:53.595Z,61.20
2018-06-30T07:50:56.113Z,61.50
2018-06-30T07:55:59.331Z,60.70
2018-06-30T08:01:03.180Z,59.20
2018-06-30T08:06:05.696Z,59.20
2018-06-30T08:11:08.214Z,59.20
2018-06-30T08:16:10.727Z,57.30
2018-06-30T08:21:13.301Z,57.00
2018-06-30T08:26:15.772Z,56.90
2018-06-30T08:31:18.779Z,57.00
2018-06-30T08:36:23.343Z,55.90
2018-06-30T08:41:26.318Z,56.30
2018-06-30T08:46:29.904Z,55.40
2018-06-30T08:51:33.353Z,55.40
2018-06-30T08:56:36.396Z,55.00
2018-06-30T09:01:40.077Z,54.40
2018-06-30T09:06:43.344Z,54.30
2018-06-30T09:11:48.391Z,54.30
2018-06-30T09:16:50.938Z,55.30
2018-06-30T09:21:53.448Z,54.30
2018-06-30T09:26:55.964Z,54.90
2018-06-30T09:31:59.243Z,53.50
2018-06-30T09:37:01.778Z,53.40
2018-06-30T09:42:06.044Z,52.40
2018-06-30T09:47:09.458Z,52.30
2018-06-30T09:52:12.091Z,51.60
2018-06-30T09:57:14.900Z,51.20
2018-06-30T10:02:18.362Z,51.70
2018-06-30T10:07:21.431Z,51.60
2018-06-30T10:12:24.095Z,50.60
2018-06-30T10:17:26.950Z,52.40
2018-06-30T10:22:30.312Z,50.90
2018-06-30T10:27:34.094Z,50.50
2018-06-30T10:32:36.813Z,50.90
2018-06-30T10:37:39.352Z,51.40
2018-06-30T10:42:41.868Z,51.50
2018-06-30T10:47:44.379Z,51.00
2018-06-30T10:52:46.893Z,50.40
2018-06-30T10:57:49.404Z,51.00
2018-06-30T11:02:51.920Z,50.10
2018-06-30T11:07:54.440Z,50.80
2018-06-30T11:12:56.957Z,50.60
2018-06-30T11:17:59.492Z,50.50
2018-06-30T11:23:02.016Z,49.70
2018-06-30T11:28:05.300Z,48.40
2018-06-30T11:33:07.816Z,48.40
2018-06-30T11:38:11.096Z,48.10
2018-06-30T11:43:13.616Z,48.10
2018-06-30T11:48:16.147Z,48.50
2018-06-30T11:53:19.437Z,46.50
2018-06-30T11:58:21.942Z,46.40
2018-06-30T12:03:25.280Z,45.50
2018-06-30T12:08:27.744Z,45.40
2018-06-30T12:13:30.251Z,43.70
2018-06-30T12:18:32.771Z,44.20
2018-06-30T12:23:35.290Z,44.10
2018-06-30T12:28:37.803Z,44.40
2018-06-30T12:33:40.347Z,44.20
2018-06-30T12:38:43.632Z,42.40
2018-06-30T12:43:46.148Z,42.40
2018-06-30T12:48:48.663Z,41.60
2018-06-30T12:53:51.945Z,39.60
2018-06-30T12:58:54.468Z,39.60
2018-06-30T13:03:56.989Z,39.40
2018-06-30T13:08:59.503Z,38.80
2018-06-30T13:14:02.070Z,38.10
2018-06-30T13:19:04.576Z,37.60
2018-06-30T13:24:07.859Z,36.70
2018-06-30T13:29:10.401Z,36.60
2018-06-30T13:34:12.936Z,36.90
2018-06-30T13:39:15.632Z,35.70
2018-06-30T13:44:18.143Z,35.40
2018-06-30T13:49:20.672Z,35.60
2018-06-30T13:54:23.191Z,34.60
2018-06-30T13:59:25.715Z,34.30
2018-06-30T14:04:28.231Z,34.00
2018-06-30T14:09:30.735Z,33.90
2018-06-30T14:14:33.265Z,34.20
2018-06-30T14:19:35.772Z,34.60
2018-06-30T14:24:38.289Z,32.60
2018-06-30T14:29:40.828Z,33.20
2018-06-30T14:34:43.359Z,33.50
2018-06-30T14:39:46.100Z,33.30
2018-06-30T14:44:48.615Z,34.40
2018-06-30T14:49:51.140Z,34.50
2018-06-30T14:54:53.667Z,34.20
2018-06-30T14:59:56.203Z,33.80
2018-06-30T15:04:58.720Z,33.40
2018-06-30T15:10:01.239Z,33.40
2018-06-30T15:15:03.762Z,33.50
2018-06-30T15:20:06.277Z,33.70
2018-06-30T15:25:08.796Z,33.80
2018-06-30T15:35:06.052Z,31.80
2018-06-30T15:40:08.575Z,32.20
2018-06-30T15:45:11.851Z,33.50
2018-06-30T15:50:14.363Z,33.50
2018-06-30T15:55:16.882Z,34.00
2018-06-30T16:00:20.233Z,33.60
2018-06-30T16:05:22.896Z,33.60
2018-06-30T16:10:25.355Z,33.50
2018-06-30T16:15:27.923Z,33.30
2018-06-30T16:20:30.448Z,33.10
2018-06-30T16:25:32.964Z,33.90
2018-06-30T16:30:35.603Z,33.80
2018-06-30T16:35:38.884Z,34.30
2018-06-30T16:40:41.411Z,34.30
2018-06-30T16:45:43.923Z,34.00
2018-06-30T16:50:46.439Z,33.70
2018-06-30T16:55:48.997Z,33.50
2018-06-30T17:00:51.509Z,33.20
2018-06-30T17:05:54.803Z,33.60
2018-06-30T17:10:57.351Z,33.50
2018-06-30T17:15:59.898Z,33.30
2018-06-30T17:21:02.412Z,33.50
2018-06-30T17:26:05.985Z,33.70
2018-06-30T17:31:09.219Z,34.20
2018-06-30T17:36:11.748Z,34.20
2018-06-30T17:41:14.260Z,34.50
2018-06-30T17:46:16.784Z,34.60
2018-06-30T17:51:19.341Z,34.30
2018-06-30T17:56:22.044Z,34.70
2018-06-30T18:01:24.653Z,35.70
2018-06-30T18:06:27.166Z,35.30
2018-06-30T18:11:29.680Z,35.30
2018-06-30T18:16:32.225Z,35.20
2018-06-30T18:21:34.747Z,35.40
2018-06-30T18:26:37.270Z,35.50
2018-06-30T18:31:39.791Z,35.90
2018-06-30T18:36:42.781Z,36.10
2018-06-30T18:41:45.327Z,36.00
2018-06-30T18:46:47.910Z,36.30
2018-06-30T18:51:50.541Z,36.60
2018-06-30T18:56:53.067Z,37.00
2018-06-30T19:01:55.602Z,37.20
2018-06-30T19:06:58.123Z,37.60
2018-06-30T19:12:01.046Z,37.40
2018-06-30T19:17:03.568Z,37.60
2018-06-30T19:22:06.302Z,37.80
2018-06-30T19:27:08.808Z,38.00
2018-06-30T19:32:11.328Z,38.20
2018-06-30T19:37:13.846Z,38.80
2018-06-30T19:42:17.175Z,39.90
2018-06-30T19:47:19.651Z,39.90
2018-06-30T19:52:22.184Z,40.10
2018-06-30T19:57:24.759Z,39.90
2018-06-30T20:02:27.353Z,40.10
2018-06-30T20:07:29.856Z,40.20
2018-06-30T20:12:32.400Z,40.50
2018-06-30T20:17:34.920Z,40.70
2018-06-30T20:27:41.681Z,41.40
2018-06-30T20:32:44.959Z,42.20
2018-06-30T20:37:47.475Z,42.00
2018-06-30T20:42:49.993Z,44.00
2018-06-30T20:47:52.593Z,44.90
2018-06-30T20:52:55.109Z,46.00
2018-06-30T20:57:57.632Z,47.40
2018-06-30T21:03:00.331Z,47.10
2018-06-30T21:08:02.894Z,47.60
2018-06-30T21:13:05.423Z,47.60
2018-06-30T21:18:07.948Z,47.70
2018-06-30T21:23:10.486Z,47.20
2018-06-30T21:28:12.995Z,47.40
2018-06-30T21:33:15.519Z,48.20
2018-06-30T21:38:18.036Z,48.80
2018-06-30T21:43:20.551Z,49.40
2018-06-30T21:48:23.074Z,50.00
2018-06-30T21:53:25.592Z,50.40
2018-06-30T21:58:28.116Z,50.50
2018-06-30T22:03:30.643Z,50.70
2018-06-30T22:08:33.216Z,51.50
2018-06-30T22:13:35.732Z,52.00
2018-06-30T22:18:38.277Z,51.70
2018-06-30T22:23:40.768Z,52.40
2018-06-30T22:28:43.292Z,51.60
2018-06-30T22:33:45.807Z,50.90
2018-06-30T22:38:48.323Z,50.40
2018-06-30T22:43:50.844Z,50.50
2018-06-30T22:48:53.367Z,50.60
2018-06-30T22:53:55.876Z,50.50
2018-06-30T22:58:58.393Z,50.80
2018-06-30T23:04:00.911Z,50.70
2018-06-30T23:09:03.423Z,51.00
2018-06-30T23:14:05.947Z,51.40
2018-06-30T23:19:08.468Z,52.00
2018-06-30T23:24:10.995Z,51.90
2018-06-30T23:29:13.527Z,52.20
2018-06-30T23:34:16.040Z,52.10
2018-06-30T23:39:18.555Z,52.40
2018-06-30T23:44:21.072Z,52.70
2018-06-30T23:49:23.605Z,52.70
2018-06-30T23:54:26.131Z,52.90
2018-06-30T23:59:28.649Z,52.90
